sensor_id;sensor_type;location;lat;lon;timestamp;P1;durP1;ratioP1;P2;durP2;ratioP2
14738;SDS011;7461;52.440;13.540;2023-02-12T00:01:52;18.48;;;13.65;;
14738;SDS011;7461;52.440;13.540;2023-02-12T00:04:19;15.57;;;13.27;;
14738;SDS011;7461;52.440;13.540;2023-02-12T00:06:46;16.50;;;13.27;;
14738;SDS011;7461;52.440;13.540;2023-02-12T00:09:13;18.25;;;14.40;;
14738;SDS011;7461;52.440;13.540;2023-02-12T00:11:40;21.70;;;12.55;;
14738;SDS011;7461;52.440;13.540;2023-02-12T00:14:07;19.40;;;12.57;;
14738;SDS011;7461;52.440;13.540;2023-02-12T00:16:34;16.50;;;12.93;;
14738;SDS011;7461;52.440;13.540;2023-02-12T00:19:03;18.92;;;12.25;;
14738;SDS011;7461;52.440;13.540;2023-02-12T00:21:30;17.75;;;12.75;;
14738;SDS011;7461;52.440;13.540;2023-02-12T00:23:57;14.73;;;12.93;;
14738;SDS011;7461;52.440;13.540;2023-02-12T00:26:24;13.85;;;10.95;;
14738;SDS011;7461;52.440;13.540;2023-02-12T00:28:51;14.60;;;11.90;;
14738;SDS011;7461;52.440;13.540;2023-02-12T00:31:19;19.10;;;12.23;;
14738;SDS011;7461;52.440;13.540;2023-02-12T00:33:47;14.10;;;11.23;;
14738;SDS011;7461;52.440;13.540;2023-02-12T00:36:19;13.95;;;12.35;;
14738;SDS011;7461;52.440;13.540;2023-02-12T00:38:49;14.23;;;11.32;;
14738;SDS011;7461;52.440;13.540;2023-02-12T00:41:17;25.25;;;13.25;;
14738;SDS011;7461;52.440;13.540;2023-02-12T00:43:44;16.73;;;13.43;;
14738;SDS011;7461;52.440;13.540;2023-02-12T00:46:12;23.50;;;11.73;;
14738;SDS011;7461;52.440;13.540;2023-02-12T00:48:40;14.63;;;10.98;;
14738;SDS011;7461;52.440;13.540;2023-02-12T00:51:07;16.92;;;10.30;;
14738;SDS011;7461;52.440;13.540;2023-02-12T00:53:36;18.95;;;11.65;;
14738;SDS011;7461;52.440;13.540;2023-02-12T00:56:03;15.43;;;10.52;;
14738;SDS011;7461;52.440;13.540;2023-02-12T00:58:31;16.77;;;10.15;;
14738;SDS011;7461;52.440;13.540;2023-02-12T01:00:58;15.52;;;9.07;;
14738;SDS011;7461;52.440;13.540;2023-02-12T01:03:25;19.10;;;10.13;;
14738;SDS011;7461;52.440;13.540;2023-02-12T01:05:52;16.27;;;11.93;;
14738;SDS011;7461;52.440;13.540;2023-02-12T01:08:19;11.45;;;9.65;;
14738;SDS011;7461;52.440;13.540;2023-02-12T01:10:52;22.80;;;10.38;;
14738;SDS011;7461;52.440;13.540;2023-02-12T01:13:20;16.38;;;9.68;;
14738;SDS011;7461;52.440;13.540;2023-02-12T01:15:48;16.20;;;8.73;;
14738;SDS011;7461;52.440;13.540;2023-02-12T01:18:14;18.60;;;8.98;;
14738;SDS011;7461;52.440;13.540;2023-02-12T01:20:41;17.83;;;9.80;;
14738;SDS011;7461;52.440;13.540;2023-02-12T01:23:08;16.67;;;9.50;;
14738;SDS011;7461;52.440;13.540;2023-02-12T01:25:36;18.73;;;9.18;;
14738;SDS011;7461;52.440;13.540;2023-02-12T01:28:05;18.42;;;9.60;;
14738;SDS011;7461;52.440;13.540;2023-02-12T01:30:32;15.77;;;8.95;;
14738;SDS011;7461;52.440;13.540;2023-02-12T01:32:59;13.50;;;10.25;;
14738;SDS011;7461;52.440;13.540;2023-02-12T01:35:26;13.80;;;8.77;;
14738;SDS011;7461;52.440;13.540;2023-02-12T01:37:53;16.67;;;9.02;;
14738;SDS011;7461;52.440;13.540;2023-02-12T01:40:20;13.82;;;10.63;;
14738;SDS011;7461;52.440;13.540;2023-02-12T01:42:47;15.80;;;8.57;;
14738;SDS011;7461;52.440;13.540;2023-02-12T01:48:22;16.83;;;9.85;;
14738;SDS011;7461;52.440;13.540;2023-02-12T01:50:51;13.38;;;8.95;;
14738;SDS011;7461;52.440;13.540;2023-02-12T01:53:19;13.50;;;9.50;;
14738;SDS011;7461;52.440;13.540;2023-02-12T01:55:51;14.85;;;9.35;;
14738;SDS011;7461;52.440;13.540;2023-02-12T01:58:24;14.45;;;9.85;;
14738;SDS011;7461;52.440;13.540;2023-02-12T02:00:55;12.23;;;10.95;;
14738;SDS011;7461;52.440;13.540;2023-02-12T02:03:24;11.65;;;8.82;;
14738;SDS011;7461;52.440;13.540;2023-02-12T02:05:53;19.98;;;8.93;;
14738;SDS011;7461;52.440;13.540;2023-02-12T02:08:24;16.83;;;8.18;;
14738;SDS011;7461;52.440;13.540;2023-02-12T02:10:51;21.50;;;10.10;;
14738;SDS011;7461;52.440;13.540;2023-02-12T02:13:18;17.17;;;8.65;;
14738;SDS011;7461;52.440;13.540;2023-02-12T02:16:05;15.43;;;9.73;;
14738;SDS011;7461;52.440;13.540;2023-02-12T02:18:39;11.02;;;7.68;;
14738;SDS011;7461;52.440;13.540;2023-02-12T02:21:24;13.27;;;8.05;;
14738;SDS011;7461;52.440;13.540;2023-02-12T02:24:12;15.18;;;8.70;;
14738;SDS011;7461;52.440;13.540;2023-02-12T02:27:09;17.30;;;9.80;;
14738;SDS011;7461;52.440;13.540;2023-02-12T02:32:56;10.63;;;7.47;;
14738;SDS011;7461;52.440;13.540;2023-02-12T02:35:35;16.25;;;7.90;;
14738;SDS011;7461;52.440;13.540;2023-02-12T02:38:10;15.90;;;7.65;;
14738;SDS011;7461;52.440;13.540;2023-02-12T02:40:48;12.70;;;7.45;;
14738;SDS011;7461;52.440;13.540;2023-02-12T02:43:21;17.10;;;8.82;;
14738;SDS011;7461;52.440;13.540;2023-02-12T02:45:54;13.70;;;8.93;;
14738;SDS011;7461;52.440;13.540;2023-02-12T02:48:26;16.42;;;7.82;;
14738;SDS011;7461;52.440;13.540;2023-02-12T02:50:59;21.10;;;9.25;;
14738;SDS011;7461;52.440;13.540;2023-02-12T02:53:30;14.00;;;9.73;;
14738;SDS011;7461;52.440;13.540;2023-02-12T02:56:00;17.75;;;8.32;;
14738;SDS011;7461;52.440;13.540;2023-02-12T02:58:30;13.48;;;7.68;;
14738;SDS011;7461;52.440;13.540;2023-02-12T03:01:03;17.50;;;9.48;;
14738;SDS011;7461;52.440;13.540;2023-02-12T03:03:33;14.90;;;8.77;;
14738;SDS011;7461;52.440;13.540;2023-02-12T03:06:06;16.80;;;9.05;;
14738;SDS011;7461;52.440;13.540;2023-02-12T03:08:36;12.13;;;7.03;;
14738;SDS011;7461;52.440;13.540;2023-02-12T03:11:09;17.35;;;8.02;;
14738;SDS011;7461;52.440;13.540;2023-02-12T03:13:40;15.18;;;9.18;;
14738;SDS011;7461;52.440;13.540;2023-02-12T03:16:15;12.75;;;7.85;;
14738;SDS011;7461;52.440;13.540;2023-02-12T03:18:48;14.50;;;8.30;;
14738;SDS011;7461;52.440;13.540;2023-02-12T03:21:19;17.20;;;8.75;;
14738;SDS011;7461;52.440;13.540;2023-02-12T03:23:52;16.58;;;8.50;;
14738;SDS011;7461;52.440;13.540;2023-02-12T03:26:26;10.73;;;6.90;;
14738;SDS011;7461;52.440;13.540;2023-02-12T03:28:58;21.88;;;8.38;;
14738;SDS011;7461;52.440;13.540;2023-02-12T03:31:28;20.85;;;8.75;;
14738;SDS011;7461;52.440;13.540;2023-02-12T03:34:03;10.98;;;8.10;;
14738;SDS011;7461;52.440;13.540;2023-02-12T03:36:37;19.00;;;9.30;;
14738;SDS011;7461;52.440;13.540;2023-02-12T03:39:13;10.70;;;7.47;;
14738;SDS011;7461;52.440;13.540;2023-02-12T03:41:46;15.35;;;9.40;;
14738;SDS011;7461;52.440;13.540;2023-02-12T03:44:21;18.13;;;9.20;;
14738;SDS011;7461;52.440;13.540;2023-02-12T03:47:01;16.58;;;8.90;;
14738;SDS011;7461;52.440;13.540;2023-02-12T03:49:35;16.15;;;8.02;;
14738;SDS011;7461;52.440;13.540;2023-02-12T03:52:07;12.93;;;8.48;;
14738;SDS011;7461;52.440;13.540;2023-02-12T03:54:34;17.83;;;9.98;;
14738;SDS011;7461;52.440;13.540;2023-02-12T03:57:02;16.98;;;9.82;;
14738;SDS011;7461;52.440;13.540;2023-02-12T03:59:33;15.88;;;8.20;;
14738;SDS011;7461;52.440;13.540;2023-02-12T04:02:03;14.13;;;7.78;;
14738;SDS011;7461;52.440;13.540;2023-02-12T04:04:30;15.95;;;8.32;;
14738;SDS011;7461;52.440;13.540;2023-02-12T04:06:58;12.50;;;8.30;;
14738;SDS011;7461;52.440;13.540;2023-02-12T04:09:25;14.45;;;7.55;;
14738;SDS011;7461;52.440;13.540;2023-02-12T04:11:58;11.35;;;7.18;;
14738;SDS011;7461;52.440;13.540;2023-02-12T04:14:35;17.25;;;8.60;;
14738;SDS011;7461;52.440;13.540;2023-02-12T04:17:11;16.60;;;9.43;;
14738;SDS011;7461;52.440;13.540;2023-02-12T04:19:46;15.98;;;8.63;;
14738;SDS011;7461;52.440;13.540;2023-02-12T04:22:27;15.75;;;8.10;;
14738;SDS011;7461;52.440;13.540;2023-02-12T04:25:05;21.83;;;11.68;;
14738;SDS011;7461;52.440;13.540;2023-02-12T04:27:46;21.63;;;9.38;;
14738;SDS011;7461;52.440;13.540;2023-02-12T04:30:20;15.32;;;8.98;;
14738;SDS011;7461;52.440;13.540;2023-02-12T04:32:51;21.17;;;10.38;;
14738;SDS011;7461;52.440;13.540;2023-02-12T04:35:22;21.55;;;11.75;;
14738;SDS011;7461;52.440;13.540;2023-02-12T04:37:54;17.98;;;8.13;;
14738;SDS011;7461;52.440;13.540;2023-02-12T04:40:26;14.88;;;8.27;;
14738;SDS011;7461;52.440;13.540;2023-02-12T04:42:53;15.82;;;9.05;;
14738;SDS011;7461;52.440;13.540;2023-02-12T04:45:21;19.63;;;9.90;;
14738;SDS011;7461;52.440;13.540;2023-02-12T04:47:52;12.45;;;9.10;;
14738;SDS011;7461;52.440;13.540;2023-02-12T04:50:19;16.35;;;8.65;;
14738;SDS011;7461;52.440;13.540;2023-02-12T04:52:47;10.98;;;8.27;;
14738;SDS011;7461;52.440;13.540;2023-02-12T04:55:14;16.27;;;9.68;;
14738;SDS011;7461;52.440;13.540;2023-02-12T04:57:41;12.48;;;9.05;;
14738;SDS011;7461;52.440;13.540;2023-02-12T05:00:10;12.20;;;8.68;;
14738;SDS011;7461;52.440;13.540;2023-02-12T05:02:39;16.88;;;8.93;;
14738;SDS011;7461;52.440;13.540;2023-02-12T05:05:07;15.50;;;8.95;;
14738;SDS011;7461;52.440;13.540;2023-02-12T05:07:34;8.43;;;7.05;;
14738;SDS011;7461;52.440;13.540;2023-02-12T05:10:02;17.02;;;9.35;;
14738;SDS011;7461;52.440;13.540;2023-02-12T05:12:29;11.13;;;8.82;;
14738;SDS011;7461;52.440;13.540;2023-02-12T05:14:56;17.00;;;8.00;;
14738;SDS011;7461;52.440;13.540;2023-02-12T05:17:23;13.43;;;7.78;;
14738;SDS011;7461;52.440;13.540;2023-02-12T05:19:50;11.70;;;9.18;;
14738;SDS011;7461;52.440;13.540;2023-02-12T05:22:19;8.65;;;6.88;;
14738;SDS011;7461;52.440;13.540;2023-02-12T05:24:46;9.60;;;8.10;;
14738;SDS011;7461;52.440;13.540;2023-02-12T05:27:13;15.70;;;8.75;;
14738;SDS011;7461;52.440;13.540;2023-02-12T05:29:40;8.93;;;7.32;;
14738;SDS011;7461;52.440;13.540;2023-02-12T05:32:07;18.88;;;9.80;;
14738;SDS011;7461;52.440;13.540;2023-02-12T05:34:34;14.30;;;9.52;;
14738;SDS011;7461;52.440;13.540;2023-02-12T05:37:01;10.60;;;9.57;;
14738;SDS011;7461;52.440;13.540;2023-02-12T05:39:30;16.33;;;10.77;;
14738;SDS011;7461;52.440;13.540;2023-02-12T05:41:57;11.10;;;8.30;;
14738;SDS011;7461;52.440;13.540;2023-02-12T05:44:24;13.30;;;9.68;;
14738;SDS011;7461;52.440;13.540;2023-02-12T05:46:51;15.23;;;9.75;;
14738;SDS011;7461;52.440;13.540;2023-02-12T05:49:18;13.35;;;9.73;;
14738;SDS011;7461;52.440;13.540;2023-02-12T05:51:44;11.13;;;8.52;;
14738;SDS011;7461;52.440;13.540;2023-02-12T05:54:11;13.85;;;8.75;;
14738;SDS011;7461;52.440;13.540;2023-02-12T05:56:43;16.15;;;10.57;;
14738;SDS011;7461;52.440;13.540;2023-02-12T05:59:12;11.27;;;10.13;;
14738;SDS011;7461;52.440;13.540;2023-02-12T06:01:42;12.25;;;9.13;;
14738;SDS011;7461;52.440;13.540;2023-02-12T06:04:12;10.27;;;8.70;;
14738;SDS011;7461;52.440;13.540;2023-02-12T06:06:40;14.75;;;8.98;;
14738;SDS011;7461;52.440;13.540;2023-02-12T06:09:08;9.82;;;7.95;;
14738;SDS011;7461;52.440;13.540;2023-02-12T06:11:35;11.45;;;10.25;;
14738;SDS011;7461;52.440;13.540;2023-02-12T06:14:04;15.70;;;11.32;;
14738;SDS011;7461;52.440;13.540;2023-02-12T06:16:32;12.18;;;8.90;;
14738;SDS011;7461;52.440;13.540;2023-02-12T06:19:00;11.32;;;7.72;;
14738;SDS011;7461;52.440;13.540;2023-02-12T06:21:29;11.52;;;10.38;;
14738;SDS011;7461;52.440;13.540;2023-02-12T06:23:58;15.50;;;9.90;;
14738;SDS011;7461;52.440;13.540;2023-02-12T06:26:25;14.18;;;9.70;;
14738;SDS011;7461;52.440;13.540;2023-02-12T06:28:51;15.20;;;9.90;;
14738;SDS011;7461;52.440;13.540;2023-02-12T06:31:20;17.92;;;9.95;;
14738;SDS011;7461;52.440;13.540;2023-02-12T06:33:49;15.40;;;11.18;;
14738;SDS011;7461;52.440;13.540;2023-02-12T06:36:17;13.00;;;10.02;;
14738;SDS011;7461;52.440;13.540;2023-02-12T06:38:44;15.38;;;9.52;;
14738;SDS011;7461;52.440;13.540;2023-02-12T06:41:11;14.82;;;8.98;;
14738;SDS011;7461;52.440;13.540;2023-02-12T06:43:40;11.27;;;8.63;;
14738;SDS011;7461;52.440;13.540;2023-02-12T06:46:07;13.45;;;9.68;;
14738;SDS011;7461;52.440;13.540;2023-02-12T06:48:36;25.15;;;13.90;;
14738;SDS011;7461;52.440;13.540;2023-02-12T06:51:03;37.60;;;25.77;;
14738;SDS011;7461;52.440;13.540;2023-02-12T06:53:32;21.52;;;18.40;;
14738;SDS011;7461;52.440;13.540;2023-02-12T06:56:00;32.33;;;20.52;;
14738;SDS011;7461;52.440;13.540;2023-02-12T06:58:27;20.52;;;16.98;;
14738;SDS011;7461;52.440;13.540;2023-02-12T07:00:54;24.55;;;17.13;;
14738;SDS011;7461;52.440;13.540;2023-02-12T07:03:21;36.10;;;19.42;;
14738;SDS011;7461;52.440;13.540;2023-02-12T07:05:50;19.30;;;14.43;;
14738;SDS011;7461;52.440;13.540;2023-02-12T07:08:17;15.98;;;14.05;;
14738;SDS011;7461;52.440;13.540;2023-02-12T07:10:47;18.52;;;14.05;;
14738;SDS011;7461;52.440;13.540;2023-02-12T07:13:15;21.95;;;15.50;;
14738;SDS011;7461;52.440;13.540;2023-02-12T07:15:42;25.00;;;14.02;;
14738;SDS011;7461;52.440;13.540;2023-02-12T07:18:09;19.77;;;13.00;;
14738;SDS011;7461;52.440;13.540;2023-02-12T07:20:36;19.02;;;13.27;;
14738;SDS011;7461;52.440;13.540;2023-02-12T07:23:04;17.25;;;12.27;;
14738;SDS011;7461;52.440;13.540;2023-02-12T07:25:31;19.50;;;11.55;;
14738;SDS011;7461;52.440;13.540;2023-02-12T07:27:59;15.13;;;11.98;;
14738;SDS011;7461;52.440;13.540;2023-02-12T07:30:26;15.27;;;10.63;;
14738;SDS011;7461;52.440;13.540;2023-02-12T07:32:53;19.30;;;12.90;;
14738;SDS011;7461;52.440;13.540;2023-02-12T07:35:20;15.80;;;11.45;;
14738;SDS011;7461;52.440;13.540;2023-02-12T07:37:47;18.77;;;11.57;;
14738;SDS011;7461;52.440;13.540;2023-02-12T07:40:15;17.70;;;13.57;;
14738;SDS011;7461;52.440;13.540;2023-02-12T07:42:42;19.00;;;13.10;;
14738;SDS011;7461;52.440;13.540;2023-02-12T07:45:09;24.35;;;13.45;;
14738;SDS011;7461;52.440;13.540;2023-02-12T07:47:36;22.15;;;13.55;;
14738;SDS011;7461;52.440;13.540;2023-02-12T07:50:05;24.10;;;12.20;;
14738;SDS011;7461;52.440;13.540;2023-02-12T07:52:32;17.95;;;12.10;;
14738;SDS011;7461;52.440;13.540;2023-02-12T07:54:59;16.40;;;11.20;;
14738;SDS011;7461;52.440;13.540;2023-02-12T07:57:28;21.85;;;12.27;;
14738;SDS011;7461;52.440;13.540;2023-02-12T07:59:55;20.98;;;11.93;;
14738;SDS011;7461;52.440;13.540;2023-02-12T08:02:22;12.70;;;10.73;;
14738;SDS011;7461;52.440;13.540;2023-02-12T08:04:53;21.05;;;12.60;;
14738;SDS011;7461;52.440;13.540;2023-02-12T08:07:21;22.27;;;14.32;;
14738;SDS011;7461;52.440;13.540;2023-02-12T08:09:48;21.45;;;12.57;;
14738;SDS011;7461;52.440;13.540;2023-02-12T08:12:15;18.92;;;11.88;;
14738;SDS011;7461;52.440;13.540;2023-02-12T08:14:44;23.83;;;13.10;;
14738;SDS011;7461;52.440;13.540;2023-02-12T08:17:11;17.58;;;10.85;;
14738;SDS011;7461;52.440;13.540;2023-02-12T08:19:37;20.30;;;13.20;;
14738;SDS011;7461;52.440;13.540;2023-02-12T08:22:05;20.75;;;13.35;;
14738;SDS011;7461;52.440;13.540;2023-02-12T08:24:32;17.67;;;11.93;;
14738;SDS011;7461;52.440;13.540;2023-02-12T08:26:59;27.33;;;11.25;;
14738;SDS011;7461;52.440;13.540;2023-02-12T08:29:26;13.13;;;11.75;;
14738;SDS011;7461;52.440;13.540;2023-02-12T08:31:57;18.70;;;11.55;;
14738;SDS011;7461;52.440;13.540;2023-02-12T08:34:25;20.98;;;12.07;;
14738;SDS011;7461;52.440;13.540;2023-02-12T08:36:54;19.10;;;11.65;;
14738;SDS011;7461;52.440;13.540;2023-02-12T08:39:22;18.30;;;11.75;;
14738;SDS011;7461;52.440;13.540;2023-02-12T08:41:50;17.92;;;11.63;;
14738;SDS011;7461;52.440;13.540;2023-02-12T08:44:20;22.20;;;11.25;;
14738;SDS011;7461;52.440;13.540;2023-02-12T08:46:47;17.65;;;10.65;;
14738;SDS011;7461;52.440;13.540;2023-02-12T08:49:18;17.00;;;11.50;;
14738;SDS011;7461;52.440;13.540;2023-02-12T08:51:47;17.33;;;11.80;;
14738;SDS011;7461;52.440;13.540;2023-02-12T08:54:16;16.80;;;11.55;;
14738;SDS011;7461;52.440;13.540;2023-02-12T08:56:44;24.70;;;12.80;;
14738;SDS011;7461;52.440;13.540;2023-02-12T08:59:11;19.55;;;9.55;;
14738;SDS011;7461;52.440;13.540;2023-02-12T09:01:39;15.23;;;10.75;;
14738;SDS011;7461;52.440;13.540;2023-02-12T09:04:08;20.65;;;10.85;;
14738;SDS011;7461;52.440;13.540;2023-02-12T09:06:40;19.48;;;12.50;;
14738;SDS011;7461;52.440;13.540;2023-02-12T09:09:07;16.60;;;10.57;;
14738;SDS011;7461;52.440;13.540;2023-02-12T09:11:34;20.77;;;10.10;;
14738;SDS011;7461;52.440;13.540;2023-02-12T09:14:03;16.35;;;9.75;;
14738;SDS011;7461;52.440;13.540;2023-02-12T09:16:34;25.98;;;12.75;;
14738;SDS011;7461;52.440;13.540;2023-02-12T09:19:03;16.48;;;10.60;;
14738;SDS011;7461;52.440;13.540;2023-02-12T09:21:30;22.92;;;12.43;;
14738;SDS011;7461;52.440;13.540;2023-02-12T09:23:59;17.23;;;11.15;;
14738;SDS011;7461;52.440;13.540;2023-02-12T09:26:26;16.70;;;10.27;;
14738;SDS011;7461;52.440;13.540;2023-02-12T09:28:53;18.90;;;10.80;;
14738;SDS011;7461;52.440;13.540;2023-02-12T09:31:21;14.68;;;9.32;;
14738;SDS011;7461;52.440;13.540;2023-02-12T09:33:50;23.98;;;11.23;;
14738;SDS011;7461;52.440;13.540;2023-02-12T09:36:19;21.45;;;11.70;;
14738;SDS011;7461;52.440;13.540;2023-02-12T09:38:46;24.75;;;12.43;;
14738;SDS011;7461;52.440;13.540;2023-02-12T09:44:14;17.77;;;9.35;;
14738;SDS011;7461;52.440;13.540;2023-02-12T09:46:47;19.30;;;12.23;;
14738;SDS011;7461;52.440;13.540;2023-02-12T09:49:21;22.45;;;13.68;;
14738;SDS011;7461;52.440;13.540;2023-02-12T09:52:03;15.77;;;11.65;;
14738;SDS011;7461;52.440;13.540;2023-02-12T09:54:37;13.57;;;11.15;;
14738;SDS011;7461;52.440;13.540;2023-02-12T09:57:10;25.25;;;12.23;;
14738;SDS011;7461;52.440;13.540;2023-02-12T09:59:42;18.70;;;10.02;;
14738;SDS011;7461;52.440;13.540;2023-02-12T10:02:13;23.35;;;11.10;;
14738;SDS011;7461;52.440;13.540;2023-02-12T10:04:41;17.25;;;10.95;;
14738;SDS011;7461;52.440;13.540;2023-02-12T10:07:12;16.08;;;9.48;;
14738;SDS011;7461;52.440;13.540;2023-02-12T10:09:59;15.60;;;10.73;;
14738;SDS011;7461;52.440;13.540;2023-02-12T10:12:46;19.88;;;11.63;;
14738;SDS011;7461;52.440;13.540;2023-02-12T10:15:20;12.40;;;9.85;;
14738;SDS011;7461;52.440;13.540;2023-02-12T10:17:58;20.15;;;12.55;;
14738;SDS011;7461;52.440;13.540;2023-02-12T10:20:47;18.33;;;11.20;;
14738;SDS011;7461;52.440;13.540;2023-02-12T10:23:36;11.73;;;9.98;;
14738;SDS011;7461;52.440;13.540;2023-02-12T10:26:19;14.45;;;9.18;;
14738;SDS011;7461;52.440;13.540;2023-02-12T10:28:51;14.38;;;9.80;;
14738;SDS011;7461;52.440;13.540;2023-02-12T10:31:20;19.40;;;12.18;;
14738;SDS011;7461;52.440;13.540;2023-02-12T10:33:50;15.77;;;10.98;;
14738;SDS011;7461;52.440;13.540;2023-02-12T10:36:22;14.32;;;9.77;;
14738;SDS011;7461;52.440;13.540;2023-02-12T10:38:57;16.30;;;10.73;;
14738;SDS011;7461;52.440;13.540;2023-02-12T10:41:28;17.83;;;10.40;;
14738;SDS011;7461;52.440;13.540;2023-02-12T10:43:59;14.48;;;9.77;;
14738;SDS011;7461;52.440;13.540;2023-02-12T10:46:26;17.63;;;11.13;;
14738;SDS011;7461;52.440;13.540;2023-02-12T10:48:56;15.15;;;9.50;;
14738;SDS011;7461;52.440;13.540;2023-02-12T10:51:49;15.25;;;11.48;;
14738;SDS011;7461;52.440;13.540;2023-02-12T10:54:36;17.48;;;12.55;;
14738;SDS011;7461;52.440;13.540;2023-02-12T10:57:06;14.57;;;11.77;;
14738;SDS011;7461;52.440;13.540;2023-02-12T10:59:41;14.38;;;11.65;;
14738;SDS011;7461;52.440;13.540;2023-02-12T11:02:19;16.48;;;12.63;;
14738;SDS011;7461;52.440;13.540;2023-02-12T11:04:51;22.63;;;12.23;;
14738;SDS011;7461;52.440;13.540;2023-02-12T11:07:21;18.98;;;12.18;;
14738;SDS011;7461;52.440;13.540;2023-02-12T11:09:49;20.80;;;10.75;;
14738;SDS011;7461;52.440;13.540;2023-02-12T11:15:14;15.32;;;10.00;;
14738;SDS011;7461;52.440;13.540;2023-02-12T11:17:44;12.00;;;10.43;;
14738;SDS011;7461;52.440;13.540;2023-02-12T11:20:24;11.85;;;10.07;;
14738;SDS011;7461;52.440;13.540;2023-02-12T11:22:54;13.10;;;9.15;;
14738;SDS011;7461;52.440;13.540;2023-02-12T11:25:23;11.05;;;8.00;;
14738;SDS011;7461;52.440;13.540;2023-02-12T11:27:58;10.23;;;9.05;;
14738;SDS011;7461;52.440;13.540;2023-02-12T11:30:49;12.15;;;7.20;;
14738;SDS011;7461;52.440;13.540;2023-02-12T11:33:28;14.93;;;8.23;;
14738;SDS011;7461;52.440;13.540;2023-02-12T11:35:58;14.80;;;10.20;;
14738;SDS011;7461;52.440;13.540;2023-02-12T11:38:29;13.27;;;8.68;;
14738;SDS011;7461;52.440;13.540;2023-02-12T11:40:59;9.80;;;8.13;;
14738;SDS011;7461;52.440;13.540;2023-02-12T11:43:33;14.52;;;9.60;;
14738;SDS011;7461;52.440;13.540;2023-02-12T11:46:05;11.57;;;8.85;;
14738;SDS011;7461;52.440;13.540;2023-02-12T11:48:34;11.10;;;8.63;;
14738;SDS011;7461;52.440;13.540;2023-02-12T11:51:05;11.40;;;10.18;;
14738;SDS011;7461;52.440;13.540;2023-02-12T11:53:35;11.15;;;9.90;;
14738;SDS011;7461;52.440;13.540;2023-02-12T11:56:06;16.52;;;10.05;;
14738;SDS011;7461;52.440;13.540;2023-02-12T11:58:35;13.52;;;10.55;;
14738;SDS011;7461;52.440;13.540;2023-02-12T12:01:06;13.45;;;10.00;;
14738;SDS011;7461;52.440;13.540;2023-02-12T12:03:40;14.18;;;11.73;;
14738;SDS011;7461;52.440;13.540;2023-02-12T12:06:17;12.45;;;10.65;;
14738;SDS011;7461;52.440;13.540;2023-02-12T12:08:52;11.88;;;10.68;;
14738;SDS011;7461;52.440;13.540;2023-02-12T12:11:27;18.98;;;11.52;;
14738;SDS011;7461;52.440;13.540;2023-02-12T12:14:02;13.18;;;11.75;;
14738;SDS011;7461;52.440;13.540;2023-02-12T12:16:40;15.70;;;13.63;;
14738;SDS011;7461;52.440;13.540;2023-02-12T12:19:31;13.45;;;12.05;;
14738;SDS011;7461;52.440;13.540;2023-02-12T12:22:22;15.50;;;11.38;;
14738;SDS011;7461;52.440;13.540;2023-02-12T12:25:08;11.77;;;9.48;;
14738;SDS011;7461;52.440;13.540;2023-02-12T12:27:42;11.43;;;10.25;;
14738;SDS011;7461;52.440;13.540;2023-02-12T12:30:35;13.20;;;11.85;;
14738;SDS011;7461;52.440;13.540;2023-02-12T12:33:14;14.95;;;13.35;;
14738;SDS011;7461;52.440;13.540;2023-02-12T12:35:46;15.32;;;13.68;;
14738;SDS011;7461;52.440;13.540;2023-02-12T12:38:35;18.02;;;13.57;;
14738;SDS011;7461;52.440;13.540;2023-02-12T12:41:12;14.80;;;13.27;;
14738;SDS011;7461;52.440;13.540;2023-02-12T12:43:48;15.50;;;13.63;;
14738;SDS011;7461;52.440;13.540;2023-02-12T12:46:26;15.50;;;13.93;;
14738;SDS011;7461;52.440;13.540;2023-02-12T12:49:06;14.95;;;13.43;;
14738;SDS011;7461;52.440;13.540;2023-02-12T12:51:52;14.73;;;13.23;;
14738;SDS011;7461;52.440;13.540;2023-02-12T12:54:39;14.73;;;13.32;;
14738;SDS011;7461;52.440;13.540;2023-02-12T12:57:27;17.80;;;13.90;;
14738;SDS011;7461;52.440;13.540;2023-02-12T13:03:13;15.10;;;13.70;;
14738;SDS011;7461;52.440;13.540;2023-02-12T13:06:12;15.05;;;13.13;;
14738;SDS011;7461;52.440;13.540;2023-02-12T13:09:12;15.43;;;13.82;;
14738;SDS011;7461;52.440;13.540;2023-02-12T13:11:53;18.35;;;14.23;;
14738;SDS011;7461;52.440;13.540;2023-02-12T13:14:35;17.05;;;14.38;;
14738;SDS011;7461;52.440;13.540;2023-02-12T13:17:10;16.27;;;13.43;;
14738;SDS011;7461;52.440;13.540;2023-02-12T13:19:46;18.70;;;16.98;;
14738;SDS011;7461;52.440;13.540;2023-02-12T13:22:26;17.77;;;16.30;;
14738;SDS011;7461;52.440;13.540;2023-02-12T13:25:00;21.65;;;19.75;;
14738;SDS011;7461;52.440;13.540;2023-02-12T13:27:39;20.10;;;17.98;;
14738;SDS011;7461;52.440;13.540;2023-02-12T13:30:15;19.48;;;17.75;;
14738;SDS011;7461;52.440;13.540;2023-02-12T13:32:45;18.20;;;16.42;;
14738;SDS011;7461;52.440;13.540;2023-02-12T13:35:17;18.65;;;16.85;;
14738;SDS011;7461;52.440;13.540;2023-02-12T13:37:48;16.83;;;15.05;;
14738;SDS011;7461;52.440;13.540;2023-02-12T13:40:18;17.38;;;15.73;;
14738;SDS011;7461;52.440;13.540;2023-02-12T13:42:48;15.93;;;14.32;;
14738;SDS011;7461;52.440;13.540;2023-02-12T13:45:21;14.52;;;13.23;;
14738;SDS011;7461;52.440;13.540;2023-02-12T13:48:00;13.38;;;11.98;;
14738;SDS011;7461;52.440;13.540;2023-02-12T13:50:46;15.07;;;12.25;;
14738;SDS011;7461;52.440;13.540;2023-02-12T13:53:24;14.20;;;12.07;;
14738;SDS011;7461;52.440;13.540;2023-02-12T13:56:02;13.05;;;11.75;;
14738;SDS011;7461;52.440;13.540;2023-02-12T13:58:48;14.98;;;11.32;;
14738;SDS011;7461;52.440;13.540;2023-02-12T14:01:34;12.30;;;11.40;;
14738;SDS011;7461;52.440;13.540;2023-02-12T14:06:59;13.60;;;11.93;;
14738;SDS011;7461;52.440;13.540;2023-02-12T14:09:34;12.30;;;11.13;;
14738;SDS011;7461;52.440;13.540;2023-02-12T14:12:05;12.25;;;11.18;;
14738;SDS011;7461;52.440;13.540;2023-02-12T14:14:36;11.40;;;10.25;;
14738;SDS011;7461;52.440;13.540;2023-02-12T14:20:20;12.20;;;10.27;;
14738;SDS011;7461;52.440;13.540;2023-02-12T14:23:00;11.07;;;9.90;;
14738;SDS011;7461;52.440;13.540;2023-02-12T14:25:56;11.90;;;10.93;;
14738;SDS011;7461;52.440;13.540;2023-02-12T14:28:28;9.60;;;8.70;;
14738;SDS011;7461;52.440;13.540;2023-02-12T14:42:58;10.10;;;9.15;;
14738;SDS011;7461;52.440;13.540;2023-02-12T14:45:27;10.38;;;9.57;;
14738;SDS011;7461;52.440;13.540;2023-02-12T14:47:56;9.60;;;8.82;;
14738;SDS011;7461;52.440;13.540;2023-02-12T14:50:24;10.18;;;9.05;;
14738;SDS011;7461;52.440;13.540;2023-02-12T14:52:58;10.90;;;9.90;;
14738;SDS011;7461;52.440;13.540;2023-02-12T14:55:30;9.45;;;8.57;;
14738;SDS011;7461;52.440;13.540;2023-02-12T14:58:02;9.40;;;8.68;;
14738;SDS011;7461;52.440;13.540;2023-02-12T15:00:33;7.63;;;6.88;;
14738;SDS011;7461;52.440;13.540;2023-02-12T15:03:12;6.90;;;6.40;;
14738;SDS011;7461;52.440;13.540;2023-02-12T15:05:46;5.93;;;5.35;;
14738;SDS011;7461;52.440;13.540;2023-02-12T15:08:22;6.43;;;5.55;;
14738;SDS011;7461;52.440;13.540;2023-02-12T15:10:55;5.97;;;5.47;;
14738;SDS011;7461;52.440;13.540;2023-02-12T15:13:32;6.90;;;6.18;;
14738;SDS011;7461;52.440;13.540;2023-02-12T15:16:12;7.18;;;6.57;;
14738;SDS011;7461;52.440;13.540;2023-02-12T15:18:47;7.43;;;6.72;;
14738;SDS011;7461;52.440;13.540;2023-02-12T15:21:20;6.88;;;6.28;;
14738;SDS011;7461;52.440;13.540;2023-02-12T15:23:56;7.28;;;6.65;;
14738;SDS011;7461;52.440;13.540;2023-02-12T15:26:27;8.95;;;7.55;;
14738;SDS011;7461;52.440;13.540;2023-02-12T15:28:57;6.53;;;5.93;;